Time;durP1;ratioP1;P1;durP2;ratioP2;P2;SDS_P1;SDS_P2;PMS_P1;PMS_P2;Temp;Humidity;BMP_temperature;BMP_pressure;BME280_temperature;BME280_humidity;BME280_pressure;Samples;Min_cycle;Max_cycle;Signal;HPM_P1;HPM_P2
2023/06/23 00:01:20;;;;;;;7.72;2.60;;;;;;;18.03;97.56;96284.63;5051990;28;20053;-74
2023/06/23 00:03:46;;;;;;;7.05;2.90;;;;;;;18.01;96.43;96295.22;5052457;28;20071;-75
2023/06/23 00:06:13;;;;;;;6.38;2.80;;;;;;;17.95;96.80;96282.91;5051019;28;20052;-75
2023/06/23 00:08:40;;;;;;;7.25;2.92;;;;;;;17.93;96.51;96291.53;5052483;28;20045;-75
2023/06/23 00:11:09;;;;;;;7.72;2.90;;;;;;;17.96;95.87;96282.56;5051935;28;20053;-75
2023/06/23 00:13:36;;;;;;;7.40;2.80;;;;;;;17.92;97.93;96284.44;5052379;28;20130;-74
2023/06/23 00:16:04;;;;;;;5.97;2.40;;;;;;;17.88;97.15;96291.84;5052069;28;20044;-76
2023/06/23 00:18:31;;;;;;;6.68;3.55;;;;;;;17.85;95.59;96300.03;5052251;28;20136;-75
2023/06/23 00:20:57;;;;;;;9.85;3.15;;;;;;;17.81;94.55;96322.03;5052551;28;20059;-75
2023/06/23 00:23:24;;;;;;;5.78;2.53;;;;;;;17.78;94.57;96339.28;5053124;28;20048;-74
2023/06/23 00:25:50;;;;;;;8.15;2.38;;;;;;;17.79;94.93;96332.59;5059549;28;20060;-75
2023/06/23 00:28:18;;;;;;;6.75;2.50;;;;;;;17.83;93.46;96347.22;5052281;28;20052;-74
2023/06/23 00:30:44;;;;;;;5.72;2.17;;;;;;;17.84;93.43;96359.84;5045020;28;20037;-75
2023/06/23 00:33:11;;;;;;;5.35;2.05;;;;;;;17.84;94.00;96354.34;5052186;28;20045;-75
2023/06/23 00:35:39;;;;;;;6.63;2.17;;;;;;;17.84;94.26;96348.81;5052266;28;20091;-75
2023/06/23 00:38:07;;;;;;;5.55;2.45;;;;;;;17.82;93.71;96344.84;5059010;28;20044;-75
2023/06/23 00:40:34;;;;;;;4.50;2.33;;;;;;;17.78;94.13;96350.28;5053455;28;20488;-74
2023/06/23 00:43:00;;;;;;;5.90;2.33;;;;;;;17.78;92.89;96344.78;5052844;28;20676;-75
2023/06/23 00:45:28;;;;;;;6.65;2.42;;;;;;;17.75;92.79;96348.28;5051804;28;20048;-75
2023/06/23 00:47:56;;;;;;;4.78;2.22;;;;;;;17.75;93.27;96353.78;5056924;28;20041;-74
2023/06/23 00:50:25;;;;;;;7.93;2.17;;;;;;;17.76;92.30;96357.34;5051367;28;20381;-75
2023/06/23 00:52:53;;;;;;;7.55;2.30;;;;;;;17.77;93.28;96354.22;5051785;28;20044;-74
2023/06/23 00:55:21;;;;;;;6.00;2.40;;;;;;;17.79;92.16;96356.59;5051591;28;20052;-74
2023/06/23 00:57:48;;;;;;;5.07;1.98;;;;;;;17.84;92.53;96361.81;5052510;28;20052;-75
2023/06/23 01:00:18;;;;;;;4.72;2.05;;;;;;;17.84;91.86;96367.31;5051305;28;20049;-75
2023/06/23 01:02:48;;;;;;;3.17;1.92;;;;;;;17.85;91.39;96363.38;5052022;28;20509;-74
2023/06/23 01:05:16;;;;;;;4.78;2.05;;;;;;;17.80;90.75;96370.03;5050215;28;20278;-75
2023/06/23 01:07:50;;;;;;;3.72;2.03;;;;;;;17.86;90.13;96368.56;5051241;28;20056;-75
2023/06/23 01:10:27;;;;;;;4.78;2.05;;;;;;;17.80;89.26;96372.78;5051059;28;20102;-74
2023/06/23 01:13:04;;;;;;;5.57;2.10;;;;;;;17.86;89.40;96374.06;5051399;28;20124;-74
2023/06/23 01:15:34;;;;;;;6.10;2.03;;;;;;;17.87;88.82;96372.91;5057968;28;20562;-75
2023/06/23 01:18:08;;;;;;;4.88;2.20;;;;;;;17.86;88.49;96357.53;5049489;28;20634;-74
2023/06/23 01:20:39;;;;;;;6.32;2.08;;;;;;;17.98;88.52;96368.38;5050450;28;20037;-73
2023/06/23 01:23:20;;;;;;;4.95;2.00;;;;;;;17.98;88.17;96373.88;5050791;28;20238;-74
2023/06/23 01:25:55;;;;;;;5.38;1.73;;;;;;;17.95;89.80;96373.81;5042972;28;20045;-74
2023/06/23 01:28:48;;;;;;;7.00;2.25;;;;;;;17.86;88.13;96371.31;5050407;28;20227;-74
2023/06/23 01:31:17;;;;;;;;;;;;;;;17.93;87.14;96365.91;5053726;28;20049;-74
2023/06/23 01:33:48;;;;;;;3.65;1.77;;;;;;;17.91;87.11;96370.22;5054607;28;19970;-74
2023/06/23 01:36:21;;;;;;;4.13;2.13;;;;;;;17.80;87.51;96364.50;5054351;28;20053;-74
2023/06/23 01:38:50;;;;;;;6.57;2.42;;;;;;;17.86;86.34;96367.75;5053311;28;20041;-73
2023/06/23 01:41:21;;;;;;;5.32;2.05;;;;;;;18.03;87.15;96372.00;5052906;28;20626;-74
2023/06/23 01:43:51;;;;;;;4.80;1.98;;;;;;;18.05;86.71;96353.13;5053734;28;20045;-74
2023/06/23 01:46:25;;;;;;;5.15;1.85;;;;;;;17.97;85.85;96357.72;5053965;28;20052;-74
2023/06/23 01:48:55;;;;;;;4.80;1.70;;;;;;;18.03;86.72;96363.72;5047691;28;20100;-73
2023/06/23 01:51:23;;;;;;;4.72;1.80;;;;;;;18.03;86.74;96366.50;5055514;28;20056;-74
2023/06/23 01:53:51;;;;;;;3.15;1.73;;;;;;;17.92;85.42;96372.59;5056165;28;20427;-74
2023/06/23 01:56:22;;;;;;;9.30;2.00;;;;;;;17.85;85.51;96383.47;5054814;28;20501;-74
2023/06/23 01:58:51;;;;;;;5.15;1.67;;;;;;;17.81;85.17;96381.81;5059170;28;20051;-74
2023/06/23 02:01:19;;;;;;;2.88;1.60;;;;;;;17.90;85.12;96382.38;5055949;28;20075;-74
2023/06/23 02:03:48;;;;;;;4.60;1.65;;;;;;;17.84;84.71;96384.63;5050072;28;20053;-73
2023/06/23 02:06:15;;;;;;;4.57;1.90;;;;;;;17.87;85.32;96375.66;5049602;28;20420;-73
2023/06/23 02:08:42;;;;;;;3.95;1.70;;;;;;;18.03;84.80;96372.00;5049937;28;20041;-73
2023/06/23 02:11:10;;;;;;;4.05;1.60;;;;;;;18.14;85.12;96361.97;5049367;28;20040;-74
2023/06/23 02:13:39;;;;;;;9.27;1.95;;;;;;;18.07;83.57;96368.16;5050075;28;20041;-73
2023/06/23 02:16:09;;;;;;;3.78;1.73;;;;;;;18.02;83.69;96362.16;5049519;28;20416;-74
2023/06/23 02:18:36;;;;;;;3.67;1.85;;;;;;;18.00;84.32;96363.28;5049812;28;20562;-73
2023/06/23 02:21:04;;;;;;;5.38;1.80;;;;;;;17.94;83.60;96356.50;5049238;28;20041;-74
2023/06/23 02:23:31;;;;;;;4.43;1.85;;;;;;;17.86;84.17;96362.25;5049474;28;20049;-73
2023/06/23 02:25:58;;;;;;;4.20;1.70;;;;;;;17.90;84.28;96363.88;5049935;28;20040;-73
2023/06/23 02:28:26;;;;;;;2.92;1.63;;;;;;;17.89;83.27;96373.31;5049026;28;20048;-73
2023/06/23 02:30:53;;;;;;;3.13;1.80;;;;;;;17.91;83.74;96371.00;5049119;28;20044;-73
2023/06/23 02:33:21;;;;;;;6.40;1.63;;;;;;;17.80;83.39;96372.78;5049101;28;20049;-73
2023/06/23 02:35:50;;;;;;;3.20;1.73;;;;;;;17.86;83.44;96374.06;5049753;28;20076;-73
2023/06/23 02:38:21;;;;;;;4.65;1.50;;;;;;;17.92;83.26;96369.84;5049352;28;20068;-73
2023/06/23 02:40:50;;;;;;;3.17;1.50;;;;;;;17.90;82.88;96366.63;5049403;28;20500;-73
2023/06/23 02:43:20;;;;;;;5.28;1.67;;;;;;;17.86;82.69;96374.06;5049270;28;20413;-73
2023/06/23 02:45:50;;;;;;;6.10;1.92;;;;;;;17.93;82.55;96365.91;5049503;28;20041;-73
2023/06/23 02:48:19;;;;;;;5.22;1.65;;;;;;;17.85;83.01;96366.94;5048984;28;20048;-73
2023/06/23 02:50:49;;;;;;;3.83;1.85;;;;;;;17.80;81.62;96369.19;5049398;28;20053;-74
2023/06/23 02:53:21;;;;;;;3.10;1.60;;;;;;;17.78;82.32;96383.34;5049292;28;20049;-73
2023/06/23 02:55:50;;;;;;;4.53;1.48;;;;;;;17.83;82.22;96380.28;5049716;28;20505;-74
2023/06/23 02:58:19;;;;;;;5.18;1.60;;;;;;;17.93;81.72;96396.22;5049046;28;20057;-74
2023/06/23 03:00:47;;;;;;;2.17;1.40;;;;;;;17.82;81.75;96399.94;5049247;28;20037;-74
2023/06/23 03:03:15;;;;;;;3.78;1.52;;;;;;;17.79;81.55;96401.44;5049037;28;20041;-73
2023/06/23 03:05:41;;;;;;;4.15;1.63;;;;;;;17.78;81.71;96401.81;5049494;28;20045;-74
2023/06/23 03:08:09;;;;;;;3.00;1.40;;;;;;;17.83;82.84;96401.53;5048617;28;20040;-74
2023/06/23 03:10:36;;;;;;;3.83;1.50;;;;;;;17.88;81.95;96398.47;5053624;28;20521;-74
2023/06/23 03:13:02;;;;;;;6.00;2.10;;;;;;;17.89;82.95;96400.06;5048768;28;20048;-74
2023/06/23 03:15:30;;;;;;;3.38;1.73;;;;;;;17.95;82.12;96399.41;5049234;28;20048;-74
2023/06/23 03:18:01;;;;;;;3.22;1.63;;;;;;;17.92;81.54;96399.34;5049345;28;20052;-74
2023/06/23 03:20:34;;;;;;;3.00;1.60;;;;;;;18.02;81.47;96398.75;5048741;28;20702;-74
2023/06/23 03:23:04;;;;;;;3.78;1.70;;;;;;;18.08;81.06;96399.25;5049261;28;20045;-73
2023/06/23 03:25:32;;;;;;;5.03;1.73;;;;;;;18.06;81.56;96394.09;5048760;28;20041;-74
2023/06/23 03:28:02;;;;;;;5.05;1.92;;;;;;;18.09;81.40;96398.09;5048958;28;20044;-73
2023/06/23 03:30:33;;;;;;;5.38;1.95;;;;;;;18.06;80.48;96399.59;5048557;28;20044;-74
2023/06/23 03:33:03;;;;;;;2.80;1.73;;;;;;;18.06;81.03;96393.28;5049034;28;20048;-73
2023/06/23 03:35:38;;;;;;;2.92;1.85;;;;;;;17.92;80.71;96388.34;5048794;28;20440;-74
2023/06/23 03:38:10;;;;;;;5.07;2.03;;;;;;;18.06;81.26;96396.06;5047212;28;20052;-75
2023/06/23 03:40:42;;;;;;;4.85;1.85;;;;;;;18.14;80.18;96384.81;5050111;28;20660;-74
2023/06/23 03:43:14;;;;;;;3.03;1.58;;;;;;;18.15;80.60;96394.66;5052273;28;20049;-74
2023/06/23 03:45:45;;;;;;;3.35;1.80;;;;;;;18.15;80.24;96388.34;5052788;28;20040;-73
2023/06/23 03:48:14;;;;;;;3.53;1.85;;;;;;;18.17;81.10;96406.13;5046392;28;20049;-74
2023/06/23 03:50:44;;;;;;;4.47;1.98;;;;;;;18.09;80.31;96409.13;5052456;28;20045;-74
2023/06/23 03:53:12;;;;;;;4.25;1.85;;;;;;;18.03;81.76;96416.88;5052337;28;20048;-74
2023/06/23 03:55:41;;;;;;;5.10;1.60;;;;;;;18.11;81.54;96417.81;5052685;28;20048;-74
2023/06/23 03:58:10;;;;;;;3.38;1.90;;;;;;;18.06;81.07;96416.13;5052134;28;20045;-74
2023/06/23 04:00:38;;;;;;;5.63;2.03;;;;;;;17.91;81.15;96415.09;5052406;28;20044;-74
2023/06/23 04:03:07;;;;;;;6.72;1.98;;;;;;;17.90;81.70;96429.22;5052624;28;20041;-74
2023/06/23 04:05:37;;;;;;;4.47;1.77;;;;;;;17.91;82.21;96425.31;5053590;28;20047;-74
2023/06/23 04:08:05;;;;;;;6.03;2.25;;;;;;;17.92;81.74;96416.69;5053342;28;20041;-74
2023/06/23 04:10:34;;;;;;;3.00;1.50;;;;;;;18.08;81.61;96419.34;5054128;28;20053;-74
2023/06/23 04:13:04;;;;;;;3.10;1.77;;;;;;;18.03;81.57;96421.59;5061742;28;20037;-73
2023/06/23 04:15:32;;;;;;;3.83;1.95;;;;;;;18.02;81.51;96425.53;5062063;28;20036;-73
2023/06/23 04:18:01;;;;;;;5.30;1.73;;;;;;;18.12;81.82;96424.94;5054661;28;20041;-74
2023/06/23 04:20:31;;;;;;;5.20;1.63;;;;;;;18.15;82.28;96424.19;5053738;28;20045;-74
2023/06/23 04:22:59;;;;;;;3.75;1.67;;;;;;;18.25;82.54;96420.81;5046423;28;20049;-73
2023/06/23 04:25:27;;;;;;;4.22;1.88;;;;;;;18.32;81.73;96425.66;5055593;28;20047;-74
2023/06/23 04:27:59;;;;;;;2.72;1.50;;;;;;;18.15;83.15;96424.19;5057748;28;20037;-74
2023/06/23 04:30:29;;;;;;;4.40;1.50;;;;;;;18.26;82.01;96419.66;5057984;28;20044;-74
2023/06/23 04:32:55;;;;;;;2.90;1.67;;;;;;;18.27;82.40;96432.31;5067907;28;20041;-74
2023/06/23 04:35:22;;;;;;;4.90;1.70;;;;;;;18.07;82.47;96439.00;5058885;28;20064;-74
2023/06/23 04:37:53;;;;;;;3.40;1.58;;;;;;;17.95;83.71;96434.41;5059128;28;20048;-73
2023/06/23 04:40:30;;;;;;;2.88;1.70;;;;;;;17.92;84.34;96441.47;5058234;28;20056;-73
2023/06/23 04:43:04;;;;;;;3.25;1.50;;;;;;;18.05;85.23;96441.31;5066444;28;20044;-74
2023/06/23 04:45:34;;;;;;;4.53;1.50;;;;;;;17.93;84.52;96439.50;5057576;28;20110;-73
2023/06/23 04:48:02;;;;;;;5.45;1.60;;;;;;;17.89;84.30;96444.94;5052524;28;20041;-73
2023/06/23 04:50:33;;;;;;;3.08;1.40;;;;;;;17.90;84.79;96449.28;5088898;28;20056;-74
2023/06/23 04:53:04;;;;;;;5.38;1.58;;;;;;;17.97;85.74;96454.97;5055972;28;20041;-74
2023/06/23 04:55:34;;;;;;;3.25;1.20;;;;;;;17.93;86.25;96459.59;5052706;28;20041;-74
2023/06/23 04:58:04;;;;;;;4.20;1.00;;;;;;;17.93;85.31;96453.28;5052721;28;20040;-74
2023/06/23 05:00:33;;;;;;;2.17;1.20;;;;;;;18.13;85.53;96454.06;5051022;28;20045;-75
2023/06/23 05:03:01;;;;;;;1.58;0.98;;;;;;;18.19;85.55;96447.09;5051449;28;20044;-75
2023/06/23 05:05:30;;;;;;;3.35;1.17;;;;;;;18.18;84.63;96451.81;5079621;28;20044;-75
2023/06/23 05:07:58;;;;;;;3.75;1.00;;;;;;;18.30;85.14;96448.09;5092085;28;20123;-75
2023/06/23 05:10:28;;;;;;;1.88;1.08;;;;;;;18.24;85.42;96449.56;5091523;28;20415;-75
2023/06/23 05:12:56;;;;;;;2.50;0.98;;;;;;;18.20;85.54;96443.97;5091708;28;20040;-75
2023/06/23 05:15:24;;;;;;;2.47;1.00;;;;;;;18.25;87.26;96453.91;5091529;28;20051;-75
2023/06/23 05:17:54;;;;;;;3.65;0.90;;;;;;;18.09;87.53;96444.94;5080775;28;20039;-75
2023/06/23 05:20:24;;;;;;;1.60;0.98;;;;;;;18.12;88.21;96447.78;5059876;28;20103;-76
2023/06/23 05:22:52;;;;;;;1.73;1.17;;;;;;;17.93;90.57;96445.03;5046416;28;20049;-75
2023/06/23 05:25:20;;;;;;;2.55;1.05;;;;;;;17.67;92.15;96445.63;5050753;28;20049;-75
2023/06/23 05:27:49;;;;;;;1.17;0.77;;;;;;;17.65;94.78;96450.72;5051834;28;20052;-76
2023/06/23 05:30:19;;;;;;;1.45;0.93;;;;;;;17.40;96.82;96459.22;5050880;28;20063;-75
2023/06/23 05:32:48;;;;;;;2.00;1.00;;;;;;;17.30;99.95;96468.03;5050909;28;20076;-76
2023/06/23 05:35:18;;;;;;;2.65;1.10;;;;;;;17.12;100.00;96467.66;5050639;28;20045;-75
2023/06/23 05:37:47;;;;;;;1.50;1.00;;;;;;;17.01;100.00;96476.78;5059320;28;20056;-75
2023/06/23 05:40:15;;;;;;;2.35;1.20;;;;;;;16.94;100.00;96469.16;5050069;28;20049;-75
2023/06/23 05:42:42;;;;;;;2.88;1.20;;;;;;;16.90;100.00;96471.03;5050766;28;20128;-74
2023/06/23 05:45:10;;;;;;;2.22;1.02;;;;;;;16.74;100.00;96473.78;5050189;28;20041;-75
2023/06/23 05:47:43;;;;;;;2.03;1.10;;;;;;;16.68;100.00;96484.22;5050497;28;20041;-74
2023/06/23 05:50:13;;;;;;;;;;;;;;;16.72;100.00;96481.59;5050423;28;20422;-75
2023/06/23 05:52:51;;;;;;;1.80;1.33;;;;;;;16.78;100.00;96493.91;5050297;28;19921;-75
2023/06/23 05:55:20;;;;;;;4.82;1.08;;;;;;;16.76;100.00;96488.00;5050230;28;20052;-74
2023/06/23 05:57:49;;;;;;;3.28;1.00;;;;;;;16.84;100.00;96494.44;5050657;28;20048;-75
2023/06/23 06:00:19;;;;;;;1.63;1.00;;;;;;;16.77;100.00;96497.81;5049919;28;20441;-76
2023/06/23 06:02:49;;;;;;;2.63;1.00;;;;;;;16.76;100.00;96509.16;5050519;28;20033;-75
2023/06/23 06:05:18;;;;;;;3.45;1.08;;;;;;;16.79;100.00;96509.25;5049269;28;20041;-74
2023/06/23 06:07:47;;;;;;;1.58;0.88;;;;;;;16.80;100.00;96505.34;5050631;28;20049;-75
2023/06/23 06:10:15;;;;;;;2.22;0.90;;;;;;;16.81;100.00;96511.66;5049726;28;20079;-75
2023/06/23 06:12:45;;;;;;;3.42;1.10;;;;;;;16.84;100.00;96522.75;5050390;28;20045;-75
2023/06/23 06:15:14;;;;;;;0.90;0.70;;;;;;;16.93;100.00;96526.13;5049680;28;20527;-75
2023/06/23 06:17:42;;;;;;;2.50;0.90;;;;;;;16.91;100.00;96533.94;5050084;28;20045;-76
2023/06/23 06:20:12;;;;;;;1.73;0.98;;;;;;;16.93;100.00;96537.13;5049826;28;20062;-76
2023/06/23 06:22:40;;;;;;;2.17;1.00;;;;;;;16.91;100.00;96552.38;5050725;28;20056;-74
2023/06/23 06:25:11;;;;;;;2.17;1.45;;;;;;;16.92;100.00;96557.56;5049911;28;20037;-75
2023/06/23 06:27:39;;;;;;;2.75;1.70;;;;;;;17.00;100.00;96571.47;5050517;28;20048;-74
2023/06/23 06:30:07;;;;;;;3.63;2.30;;;;;;;16.92;100.00;96585.06;5049674;28;20055;-76
2023/06/23 06:32:38;;;;;;;3.67;2.67;;;;;;;16.87;100.00;96595.53;5050295;28;20049;-75
2023/06/23 06:35:07;;;;;;;4.68;3.10;;;;;;;16.77;100.00;96596.03;5050166;28;20037;-75
2023/06/23 06:37:35;;;;;;;10.40;4.05;;;;;;;16.73;100.00;96606.94;5057811;28;20507;-75
2023/06/23 06:40:04;;;;;;;8.50;4.25;;;;;;;16.61;100.00;96606.97;5049513;28;20041;-75
2023/06/23 06:42:33;;;;;;;6.07;4.05;;;;;;;16.68;100.00;96607.94;5058222;28;20056;-76
2023/06/23 06:44:59;;;;;;;6.43;4.40;;;;;;;16.69;100.00;96614.25;5050366;28;20045;-75
2023/06/23 06:47:28;;;;;;;10.43;4.93;;;;;;;16.73;100.00;96615.19;5049652;28;20045;-76
2023/06/23 06:49:56;;;;;;;6.10;4.40;;;;;;;16.81;100.00;96622.47;5050129;28;20041;-75
2023/06/23 06:52:23;;;;;;;5.75;4.03;;;;;;;16.93;100.00;96638.91;5049880;28;20044;-75
2023/06/23 06:54:52;;;;;;;5.75;3.67;;;;;;;16.97;100.00;96635.47;5050239;28;20519;-75
2023/06/23 06:57:19;;;;;;;4.57;3.58;;;;;;;17.00;100.00;96648.50;5049526;28;20041;-75
2023/06/23 06:59:47;;;;;;;4.72;3.78;;;;;;;16.97;100.00;96646.47;5050105;28;20045;-75
2023/06/23 07:02:14;;;;;;;6.70;4.28;;;;;;;16.90;100.00;96647.06;5049687;28;20053;-75
2023/06/23 07:04:41;;;;;;;7.55;4.50;;;;;;;17.01;100.00;96641.84;5049883;28;20552;-75
2023/06/23 07:07:07;;;;;;;5.80;4.10;;;;;;;16.94;100.00;96647.97;5049892;28;20053;-75
2023/06/23 07:09:34;;;;;;;5.55;3.97;;;;;;;16.95;100.00;96653.09;5049701;28;20056;-75
2023/06/23 07:12:00;;;;;;;6.80;5.00;;;;;;;16.75;100.00;96662.38;5058223;28;20064;-76
2023/06/23 07:14:27;;;;;;;7.43;5.03;;;;;;;16.81;100.00;96654.66;5049955;28;20041;-75
2023/06/23 07:16:55;;;;;;;7.57;6.03;;;;;;;16.74;100.00;96649.78;5053301;28;20081;-75
2023/06/23 07:19:22;;;;;;;10.20;6.25;;;;;;;16.77;100.00;96649.09;5053777;28;20051;-75
2023/06/23 07:21:48;;;;;;;9.30;6.45;;;;;;;16.77;100.00;96660.06;5054282;28;20037;-74
2023/06/23 07:24:15;;;;;;;9.98;6.60;;;;;;;16.72;100.00;96662.28;5053732;28;20052;-75
2023/06/23 07:26:41;;;;;;;9.05;6.32;;;;;;;16.74;100.00;96665.47;5054429;28;20679;-75
2023/06/23 07:29:08;;;;;;;8.90;6.55;;;;;;;16.74;100.00;96659.97;5053894;28;20041;-76
2023/06/23 07:31:37;;;;;;;10.63;7.28;;;;;;;16.84;100.00;96660.25;5054657;28;20056;-76
2023/06/23 07:34:05;;;;;;;10.02;7.15;;;;;;;16.84;100.00;96682.28;5053685;28;20116;-75
2023/06/23 07:36:31;;;;;;;10.00;7.35;;;;;;;16.90;100.00;96680.88;5062176;28;20083;-75
2023/06/23 07:38:58;;;;;;;15.50;7.70;;;;;;;16.97;100.00;96683.03;5055330;28;20052;-75
2023/06/23 07:41:24;;;;;;;11.52;7.53;;;;;;;17.05;100.00;96681.25;5053728;28;20041;-75
2023/06/23 07:43:51;;;;;;;11.90;8.07;;;;;;;16.98;100.00;96687.38;5062493;28;20041;-75
2023/06/23 07:46:19;;;;;;;12.05;7.80;;;;;;;16.99;100.00;96685.41;5053663;28;20041;-76
2023/06/23 07:48:45;;;;;;;14.90;8.43;;;;;;;16.90;100.00;96680.88;5053865;28;20041;-76
2023/06/23 07:51:13;;;;;;;11.90;8.93;;;;;;;16.91;100.00;96684.41;5053432;28;20056;-76
2023/06/23 07:53:40;;;;;;;13.13;9.27;;;;;;;16.89;100.00;96690.28;5054121;28;20060;-75
2023/06/23 07:56:06;;;;;;;12.98;8.18;;;;;;;16.84;100.00;96686.97;5054053;28;20066;-75
2023/06/23 07:58:33;;;;;;;12.20;8.60;;;;;;;16.77;100.00;96692.28;5061657;28;20048;-75
2023/06/23 08:00:59;;;;;;;13.70;9.00;;;;;;;16.80;100.00;96691.56;5056299;28;20722;-75
2023/06/23 08:03:26;;;;;;;12.52;9.20;;;;;;;16.81;100.00;96702.25;5056982;28;20048;-76
2023/06/23 08:05:52;;;;;;;13.23;9.02;;;;;;;16.89;100.00;96701.28;5055711;28;20049;-75
2023/06/23 08:08:20;;;;;;;11.50;9.05;;;;;;;16.84;100.00;96697.97;5055669;28;20045;-75
2023/06/23 08:10:46;;;;;;;13.27;9.77;;;;;;;17.03;100.00;96700.09;5056255;28;20048;-76
2023/06/23 08:13:13;;;;;;;12.57;9.10;;;;;;;17.22;100.00;96692.72;5062519;28;20048;-75
2023/06/23 08:15:41;;;;;;;12.48;8.65;;;;;;;17.31;100.00;96706.34;5056135;28;20052;-75
2023/06/23 08:18:07;;;;;;;13.10;9.40;;;;;;;17.30;100.00;96707.50;5057037;28;20041;-76
2023/06/23 08:20:34;;;;;;;12.52;9.32;;;;;;;17.46;100.00;96710.28;5056214;28;20041;-75
2023/06/23 08:23:01;;;;;;;12.57;9.30;;;;;;;17.50;100.00;96715.88;5057424;28;20672;-75
2023/06/23 08:25:29;;;;;;;15.27;9.77;;;;;;;17.59;100.00;96714.56;5056819;28;20037;-76
2023/06/23 08:27:55;;;;;;;12.52;9.63;;;;;;;17.68;100.00;96700.59;5055428;28;20045;-75
2023/06/23 08:30:26;;;;;;;12.50;9.18;;;;;;;17.77;96.68;96708.72;5061166;28;20055;-75
2023/06/23 08:32:52;;;;;;;11.15;8.85;;;;;;;17.74;94.70;96718.47;5058675;28;20059;-75
2023/06/23 08:35:19;;;;;;;10.65;8.05;;;;;;;17.89;94.17;96719.63;5051441;28;20055;-75
2023/06/23 08:37:46;;;;;;;12.68;9.15;;;;;;;17.84;93.51;96722.66;5051801;28;20044;-75
2023/06/23 08:40:13;;;;;;;11.02;8.85;;;;;;;18.07;93.19;96731.09;5051250;28;20049;-76
2023/06/23 08:42:41;;;;;;;12.40;9.10;;;;;;;18.15;91.89;96724.59;5059972;28;20052;-76
2023/06/23 08:45:12;;;;;;;13.32;9.30;;;;;;;18.22;90.72;96733.03;5051065;28;20406;-75
2023/06/23 08:47:42;;;;;;;12.18;8.90;;;;;;;17.89;88.91;96731.44;5051774;28;20102;-75
2023/06/23 08:50:09;;;;;;;9.98;8.30;;;;;;;18.00;89.53;96732.50;5050800;28;20073;-76
2023/06/23 08:52:36;;;;;;;11.70;8.70;;;;;;;18.02;87.99;96734.13;5051233;28;20048;-75
2023/06/23 08:55:03;;;;;;;12.13;8.77;;;;;;;18.04;88.04;96737.31;5050740;28;20500;-76
2023/06/23 08:57:30;;;;;;;14.23;9.40;;;;;;;17.94;87.24;96739.44;5059573;28;20500;-75
2023/06/23 08:59:59;;;;;;;11.88;9.15;;;;;;;17.89;88.05;96742.47;5051506;28;20076;-75
2023/06/23 09:02:25;;;;;;;12.25;9.02;;;;;;;17.87;86.32;96744.78;5051070;28;20045;-75
2023/06/23 09:04:52;;;;;;;14.93;8.73;;;;;;;17.86;84.08;96745.16;5051202;28;20064;-76
2023/06/23 09:07:18;;;;;;;14.98;9.07;;;;;;;17.94;84.54;96755.97;5058996;28;20037;-75
2023/06/23 09:09:47;;;;;;;11.80;8.93;;;;;;;17.91;83.65;96745.69;5051014;28;20045;-76
2023/06/23 09:12:16;;;;;;;12.57;9.00;;;;;;;17.96;83.37;96759.19;5042499;28;20506;-76
2023/06/23 09:14:44;;;;;;;12.23;9.00;;;;;;;17.91;84.58;96756.72;5051063;28;20083;-75
2023/06/23 09:17:13;;;;;;;14.60;9.73;;;;;;;17.89;84.44;96761.75;5058557;28;20061;-75
2023/06/23 09:19:42;;;;;;;15.70;9.73;;;;;;;17.90;83.19;96757.84;5051039;28;20041;-76
2023/06/23 09:22:09;;;;;;;14.50;9.73;;;;;;;17.78;84.36;96760.69;5050543;28;20510;-76
2023/06/23 09:24:40;;;;;;;12.65;9.68;;;;;;;17.85;83.59;96747.09;5051260;28;20511;-76
2023/06/23 09:27:06;;;;;;;12.23;9.57;;;;;;;17.90;80.47;96749.56;5050361;28;20523;-76
2023/06/23 09:29:33;;;;;;;12.77;9.07;;;;;;;18.03;82.04;96741.22;5050799;28;20056;-75
2023/06/23 09:32:02;;;;;;;12.65;9.23;;;;;;;18.25;82.64;96744.13;5050834;28;20098;-76
2023/06/23 09:34:34;;;;;;;13.43;10.60;;;;;;;18.44;79.38;96746.16;5058499;28;20452;-75
2023/06/23 09:37:06;;;;;;;12.70;9.95;;;;;;;18.52;78.43;96741.56;5050655;28;20064;-76
2023/06/23 09:39:34;;;;;;;15.80;10.68;;;;;;;18.74;77.14;96742.88;5050163;28;20049;-76
2023/06/23 09:42:05;;;;;;;16.25;11.27;;;;;;;19.08;76.76;96732.94;5050577;28;20040;-76
2023/06/23 09:44:34;;;;;;;15.27;11.00;;;;;;;19.15;76.49;96729.50;5050884;28;20037;-76
2023/06/23 09:47:01;;;;;;;15.82;10.50;;;;;;;19.23;74.73;96731.25;5050486;28;20045;-76
2023/06/23 09:49:27;;;;;;;18.25;10.30;;;;;;;19.19;73.03;96727.63;5069922;28;20040;-76
2023/06/23 09:51:55;;;;;;;12.57;10.32;;;;;;;19.22;74.08;96735.19;5070272;28;20411;-76
2023/06/23 09:54:32;;;;;;;15.45;10.68;;;;;;;19.07;75.47;96734.13;5069971;28;20049;-76
2023/06/23 09:57:02;;;;;;;13.63;10.15;;;;;;;19.03;75.52;96725.75;5070489;28;20076;-76
2023/06/23 09:59:31;;;;;;;15.10;10.32;;;;;;;18.95;76.27;96726.78;5070216;28;20044;-76
2023/06/23 10:01:57;;;;;;;18.52;11.15;;;;;;;18.78;76.06;96728.00;5070387;28;20403;-76
2023/06/23 10:04:28;;;;;;;14.73;11.13;;;;;;;18.60;78.73;96726.00;5069758;28;20049;-76
2023/06/23 10:06:56;;;;;;;13.43;9.85;;;;;;;18.82;76.47;96722.56;5070479;28;20044;-76
2023/06/23 10:09:24;;;;;;;16.33;11.27;;;;;;;18.88;76.57;96732.13;5070281;28;20052;-76
2023/06/23 10:11:52;;;;;;;14.75;9.73;;;;;;;18.91;75.92;96731.44;5070294;28;20040;-76
2023/06/23 10:14:20;;;;;;;15.60;11.27;;;;;;;18.90;76.59;96735.34;5069506;28;20044;-76
2023/06/23 10:16:48;;;;;;;14.60;10.82;;;;;;;19.05;76.64;96725.38;5068680;28;20132;-76
2023/06/23 10:19:14;;;;;;;14.70;10.65;;;;;;;19.27;76.85;96716.38;5069569;28;20428;-76
2023/06/23 10:21:42;;;;;;;14.82;10.50;;;;;;;19.48;72.25;96729.78;5070236;28;20037;-76
2023/06/23 10:24:16;;;;;;;15.40;10.77;;;;;;;19.58;73.72;96727.59;5069699;28;20714;-76
2023/06/23 10:26:43;;;;;;;15.60;10.50;;;;;;;19.67;73.43;96717.09;5069699;28;20454;-76
2023/06/23 10:29:13;;;;;;;16.60;10.40;;;;;;;19.53;71.79;96723.16;5069286;28;20044;-76
2023/06/23 10:31:41;;;;;;;18.42;11.23;;;;;;;19.54;71.20;96725.53;5070223;28;20447;-76
2023/06/23 10:34:12;;;;;;;17.70;11.77;;;;;;;19.58;71.84;96730.34;5069795;28;20408;-76
2023/06/23 10:36:41;;;;;;;13.40;10.52;;;;;;;19.62;71.15;96722.94;5070167;28;20052;-77
2023/06/23 10:39:11;;;;;;;16.45;11.95;;;;;;;19.51;72.34;96723.50;5069662;28;20044;-76
2023/06/23 10:41:41;;;;;;;16.10;10.50;;;;;;;19.69;72.97;96729.38;5070734;28;20045;-76
2023/06/23 10:44:09;;;;;;;17.88;11.20;;;;;;;20.10;74.35;96731.63;5070761;28;20098;-77
2023/06/23 10:46:36;;;;;;;18.83;11.05;;;;;;;20.21;70.31;96736.16;5069165;28;20045;-76
2023/06/23 10:49:04;;;;;;;16.48;10.98;;;;;;;20.15;68.30;96731.31;5070501;28;20041;-77
2023/06/23 10:51:32;;;;;;;16.00;11.35;;;;;;;19.89;70.89;96737.59;5073891;28;20419;-75
2023/06/23 10:54:00;;;;;;;15.13;10.73;;;;;;;19.79;69.25;96730.75;5074809;28;20055;-76
2023/06/23 10:56:36;;;;;;;13.63;10.73;;;;;;;19.76;67.95;96725.94;5074450;28;20048;-77
2023/06/23 10:59:19;;;;;;;12.63;9.40;;;;;;;19.93;66.92;96733.72;5056819;28;20037;-76
2023/06/23 11:02:16;;;;;;;10.95;8.23;;;;;;;20.11;64.79;96725.75;5062031;28;20036;-76
2023/06/23 11:04:52;;;;;;;11.65;6.88;;;;;;;20.38;65.10;96740.38;5056356;28;20041;-76
2023/06/23 11:07:18;;;;;;;12.45;7.53;;;;;;;20.52;63.65;96724.03;5080187;28;20036;-76
2023/06/23 11:09:49;;;;;;;11.93;8.80;;;;;;;20.80;62.26;96723.59;5087012;28;20047;-76
2023/06/23 11:12:33;;;;;;;11.88;7.45;;;;;;;21.09;60.64;96727.53;5088146;28;20041;-76
2023/06/23 11:15:11;;;;;;;12.88;7.30;;;;;;;21.23;59.42;96728.84;5072566;28;20047;-76
2023/06/23 11:17:42;;;;;;;11.55;6.50;;;;;;;21.25;60.75;96734.84;5066647;28;20036;-76
2023/06/23 11:20:13;;;;;;;9.95;7.30;;;;;;;21.33;57.97;96744.84;5059289;28;20043;-76
2023/06/23 11:22:52;;;;;;;11.77;7.75;;;;;;;21.30;57.52;96751.16;5060585;28;20041;-75
2023/06/23 11:25:23;;;;;;;10.80;6.63;;;;;;;21.41;57.50;96745.72;5058901;28;20041;-76
2023/06/23 11:28:23;;;;;;;9.95;6.65;;;;;;;21.39;57.94;96748.84;5058928;28;20041;-76
2023/06/23 11:31:01;;;;;;;10.05;7.43;;;;;;;21.56;57.27;96731.66;5079185;28;20032;-75
2023/06/23 11:33:28;;;;;;;16.23;7.57;;;;;;;21.67;57.20;96730.97;5062313;28;20036;-76
2023/06/23 11:35:55;;;;;;;10.68;6.93;;;;;;;21.61;55.39;96727.72;5060036;28;20400;-76
2023/06/23 11:38:22;;;;;;;9.45;7.13;;;;;;;21.78;57.11;96737.41;5056232;28;20711;-76